createdAt,value
2016-05-10T00:00:22.392Z,19.87
2016-05-10T00:04:22.357Z,19.75
2016-05-10T00:06:22.205Z,19.73
2016-05-10T00:07:21.880Z,19.72
2016-05-10T00:08:22.882Z,19.83
2016-05-10T00:10:21.404Z,19.73
2016-05-10T00:11:21.626Z,19.7
2016-05-10T00:12:23.170Z,19.65
2016-05-10T00:13:22.870Z,19.65
2016-05-10T00:14:21.477Z,19.73
2016-05-10T00:15:22.271Z,19.72
2016-05-10T00:17:22.044Z,19.68
2016-05-10T00:18:21.514Z,19.61
2016-05-10T00:19:21.594Z,19.66
2016-05-10T00:20:25.049Z,19.65
2016-05-10T00:21:21.660Z,19.58
2016-05-10T00:22:23.124Z,19.61
2016-05-10T00:23:21.616Z,19.63
2016-05-10T00:24:21.594Z,19.54
2016-05-10T00:25:21.414Z,19.5
2016-05-10T00:26:21.578Z,19.57
2016-05-10T00:27:21.584Z,19.48
2016-05-10T00:28:21.823Z,19.5
2016-05-10T00:29:22.735Z,19.54
2016-05-10T00:30:21.489Z,19.55
2016-05-10T00:32:21.543Z,19.53
2016-05-10T00:33:22.188Z,19.55
2016-05-10T00:35:22.242Z,19.4
2016-05-10T00:36:22.307Z,19.51
2016-05-10T00:37:21.623Z,19.48
2016-05-10T00:38:21.486Z,19.51
2016-05-10T00:39:21.363Z,19.51
2016-05-10T00:40:21.507Z,19.35
2016-05-10T00:41:21.151Z,19.35
2016-05-10T00:42:21.669Z,19.36
2016-05-10T00:43:21.469Z,19.38
2016-05-10T00:44:22.143Z,19.35
2016-05-10T00:45:21.288Z,19.39
2016-05-10T00:46:22.852Z,19.36
2016-05-10T00:47:22.511Z,19.39
2016-05-10T00:48:21.374Z,19.29
2016-05-10T00:49:21.110Z,19.32
2016-05-10T00:50:21.254Z,19.38
2016-05-10T00:51:21.349Z,19.42
2016-05-10T00:52:21.102Z,19.33
2016-05-10T00:53:21.512Z,19.23
2016-05-10T00:54:21.640Z,19.29
2016-05-10T00:55:21.783Z,19.28
2016-05-10T00:56:20.988Z,19.25
2016-05-10T00:57:21.320Z,19.24
2016-05-10T00:58:22.181Z,19.31
2016-05-10T00:59:21.075Z,19.21
2016-05-10T01:00:23.343Z,19.32
2016-05-10T01:01:21.939Z,19.32
2016-05-10T01:02:20.958Z,19.2
2016-05-10T01:03:21.101Z,19.17
2016-05-10T01:04:20.948Z,19.21
2016-05-10T01:05:20.950Z,19.17
2016-05-10T01:06:20.734Z,19.21
2016-05-10T01:07:20.940Z,19.17
2016-05-10T01:08:20.755Z,19.2
2016-05-10T01:09:20.805Z,19.15
2016-05-10T01:10:20.808Z,19.18
2016-05-10T01:11:20.794Z,19.17
2016-05-10T01:12:20.703Z,19.21
2016-05-10T01:13:21.175Z,19.17
2016-05-10T01:14:20.631Z,19.13
2016-05-10T01:15:21.086Z,19.17
2016-05-10T01:16:21.246Z,19.18
2016-05-10T01:17:20.592Z,19.14
2016-05-10T01:18:20.766Z,19.15
2016-05-10T01:19:21.597Z,19.02
2016-05-10T01:20:20.538Z,19.11
2016-05-10T01:21:20.337Z,19.1
2016-05-10T01:22:21.277Z,19.13
2016-05-10T01:23:20.468Z,19.1
2016-05-10T01:24:20.596Z,19.08
2016-05-10T01:25:20.566Z,19.11
2016-05-10T01:26:21.007Z,19.01
2016-05-10T01:27:20.431Z,18.97
2016-05-10T01:28:20.371Z,19.05
2016-05-10T01:29:20.734Z,19.02
2016-05-10T01:30:20.470Z,18.95
2016-05-10T01:31:20.036Z,18.98
2016-05-10T01:32:21.382Z,18.99
2016-05-10T01:33:20.292Z,18.92
2016-05-10T01:34:20.340Z,18.94
2016-05-10T01:35:21.015Z,18.91
2016-05-10T01:36:20.190Z,18.97
2016-05-10T01:37:20.723Z,18.95
2016-05-10T01:38:20.430Z,18.97
2016-05-10T01:39:20.886Z,18.9
2016-05-10T01:40:21.076Z,18.9
2016-05-10T01:41:20.625Z,18.92
2016-05-10T01:42:20.097Z,18.9
2016-05-10T01:43:20.099Z,18.98
2016-05-10T01:44:20.055Z,18.86
2016-05-10T01:45:20.027Z,18.94
2016-05-10T01:46:20.311Z,18.86
2016-05-10T01:47:20.001Z,18.84
2016-05-10T01:48:20.019Z,18.91
2016-05-10T01:49:20.490Z,18.91
2016-05-10T01:50:19.899Z,18.87
2016-05-10T01:51:20.027Z,18.91
2016-05-10T01:52:20.452Z,18.91
2016-05-10T01:53:19.939Z,18.86
2016-05-10T01:54:19.613Z,18.9
2016-05-10T01:55:19.976Z,18.91
2016-05-10T01:56:20.228Z,18.95
2016-05-10T01:57:19.685Z,18.92
2016-05-10T01:58:19.718Z,18.87
2016-05-10T01:59:20.424Z,18.92
2016-05-10T02:00:19.674Z,18.91
2016-05-10T02:01:19.582Z,18.87
2016-05-10T02:02:19.460Z,18.91
2016-05-10T02:03:19.603Z,18.94
2016-05-10T02:04:19.590Z,18.9
2016-05-10T02:05:19.671Z,18.91
2016-05-10T02:06:19.362Z,18.95
2016-05-10T02:07:20.508Z,18.87
2016-05-10T02:08:19.773Z,18.8
2016-05-10T02:09:19.697Z,18.84
2016-05-10T02:10:19.544Z,18.9
2016-05-10T02:11:19.875Z,18.87
2016-05-10T02:12:19.581Z,18.9
2016-05-10T02:13:20.193Z,18.91
2016-05-10T02:14:19.914Z,18.92
2016-05-10T02:15:20.544Z,18.83
2016-05-10T02:16:19.341Z,18.83
2016-05-10T02:17:19.328Z,18.9
2016-05-10T02:18:19.456Z,18.77
2016-05-10T02:19:19.303Z,18.79
2016-05-10T02:20:20.165Z,18.73
2016-05-10T02:21:19.355Z,18.74
2016-05-10T02:22:19.952Z,18.65
2016-05-10T02:23:19.532Z,18.74
2016-05-10T02:24:19.285Z,18.72
2016-05-10T02:25:19.382Z,18.7
2016-05-10T02:26:19.088Z,18.76
2016-05-10T02:27:19.105Z,18.76
2016-05-10T02:28:19.421Z,18.74
2016-05-10T02:29:18.971Z,18.73
2016-05-10T02:30:19.082Z,18.7
2016-05-10T02:31:19.710Z,18.74
2016-05-10T02:32:19.134Z,18.68
2016-05-10T02:33:19.465Z,18.67
2016-05-10T02:34:19.093Z,18.72
2016-05-10T02:35:19.409Z,18.62
2016-05-10T02:36:19.052Z,18.72
2016-05-10T02:37:18.914Z,18.68
2016-05-10T02:38:18.931Z,18.72
2016-05-10T02:39:18.919Z,18.7
2016-05-10T02:40:19.156Z,18.7
2016-05-10T02:41:18.737Z,18.73
2016-05-10T02:42:19.068Z,18.73
2016-05-10T02:43:19.086Z,18.7
2016-05-10T02:44:19.401Z,18.62
2016-05-10T02:45:18.841Z,18.7
2016-05-10T02:46:19.126Z,18.64
2016-05-10T02:47:18.925Z,18.65
2016-05-10T02:48:18.927Z,18.57
2016-05-10T02:49:18.728Z,18.57
2016-05-10T02:50:18.902Z,18.61
2016-05-10T02:51:18.638Z,18.59
2016-05-10T02:52:18.861Z,18.62
2016-05-10T02:53:18.629Z,18.61
2016-05-10T02:54:18.413Z,18.55
2016-05-10T02:55:19.338Z,18.52
2016-05-10T02:56:18.480Z,18.55
2016-05-10T02:57:18.546Z,18.54
2016-05-10T02:58:18.517Z,18.54
2016-05-10T02:59:20.598Z,18.58
2016-05-10T03:00:18.460Z,18.52
2016-05-10T03:01:18.509Z,18.58
2016-05-10T03:02:18.419Z,18.54
2016-05-10T03:03:18.421Z,18.57
2016-05-10T03:04:18.346Z,18.5
2016-05-10T03:05:18.598Z,18.52
2016-05-10T03:06:18.835Z,18.46
2016-05-10T03:07:18.338Z,18.49
2016-05-10T03:08:18.715Z,18.42
2016-05-10T03:09:18.765Z,18.54
2016-05-10T03:10:18.237Z,18.42
2016-05-10T03:11:18.427Z,18.47
2016-05-10T03:12:18.164Z,18.44
2016-05-10T03:13:18.651Z,18.42
2016-05-10T03:14:18.545Z,18.42
2016-05-10T03:15:18.313Z,18.4
2016-05-10T03:16:18.347Z,18.44
2016-05-10T03:17:18.130Z,18.42
2016-05-10T03:18:18.197Z,18.4
2016-05-10T03:19:17.917Z,18.42
2016-05-10T03:20:18.138Z,18.39
2016-05-10T03:21:18.220Z,18.42
2016-05-10T03:22:18.691Z,18.36
2016-05-10T03:23:17.849Z,18.42
2016-05-10T03:24:18.352Z,18.4
2016-05-10T03:25:18.011Z,18.37
2016-05-10T03:26:17.999Z,18.37
2016-05-10T03:27:18.096Z,18.34
2016-05-10T03:28:18.566Z,18.29
2016-05-10T03:29:18.038Z,18.37
2016-05-10T03:30:17.869Z,18.33
2016-05-10T03:31:18.356Z,18.34
2016-05-10T03:32:17.827Z,18.22
2016-05-10T03:33:17.768Z,18.28
2016-05-10T03:34:17.801Z,18.28
2016-05-10T03:35:18.179Z,18.31
2016-05-10T03:36:17.729Z,18.27
2016-05-10T03:37:18.012Z,18.31
2016-05-10T03:38:17.782Z,18.25
2016-05-10T03:39:17.517Z,18.28
2016-05-10T03:40:17.739Z,18.28
2016-05-10T03:41:17.929Z,18.28
2016-05-10T03:42:17.917Z,18.28
2016-05-10T03:43:17.435Z,18.24
2016-05-10T03:44:17.750Z,18.18
2016-05-10T03:45:17.597Z,18.18
2016-05-10T03:46:17.381Z,18.15
2016-05-10T03:47:17.992Z,18.24
2016-05-10T03:48:17.683Z,18.27
2016-05-10T03:49:17.358Z,18.17
2016-05-10T03:50:17.517Z,18.24
2016-05-10T03:51:17.456Z,18.17
2016-05-10T03:52:17.458Z,18.18
2016-05-10T03:53:17.399Z,18.27
2016-05-10T03:54:17.418Z,18.28
2016-05-10T03:55:17.374Z,18.22
2016-05-10T03:56:17.470Z,18.28
2016-05-10T03:57:17.786Z,18.33
2016-05-10T03:58:17.350Z,18.28
2016-05-10T03:59:17.493Z,18.28
2016-05-10T04:00:17.246Z,18.27
2016-05-10T04:01:17.858Z,18.27
2016-05-10T04:02:17.893Z,18.34
2016-05-10T04:03:17.457Z,18.29
2016-05-10T04:04:17.273Z,18.33
2016-05-10T04:05:17.368Z,18.29
2016-05-10T04:06:17.153Z,18.28
2016-05-10T04:07:17.140Z,18.29
2016-05-10T04:08:17.471Z,18.31
2016-05-10T04:09:17.396Z,18.27
2016-05-10T04:10:17.054Z,18.27
2016-05-10T04:11:17.182Z,18.29
2016-05-10T04:12:17.029Z,18.25
2016-05-10T04:13:17.031Z,18.27
2016-05-10T04:14:17.425Z,18.24
2016-05-10T04:15:17.006Z,18.25
2016-05-10T04:16:17.086Z,18.28
2016-05-10T04:17:17.151Z,18.29
2016-05-10T04:18:16.858Z,18.17
2016-05-10T04:19:16.750Z,18.24
2016-05-10T04:20:17.019Z,18.28
2016-05-10T04:21:16.677Z,18.21
2016-05-10T04:22:17.008Z,18.28
2016-05-10T04:23:17.011Z,18.22
2016-05-10T04:24:16.983Z,18.31
2016-05-10T04:25:16.908Z,18.27
2016-05-10T04:26:16.770Z,18.28
2016-05-10T04:27:16.913Z,18.25
2016-05-10T04:28:16.727Z,18.28
2016-05-10T04:29:16.980Z,18.25
2016-05-10T04:30:16.733Z,18.28
2016-05-10T04:31:16.658Z,18.34
2016-05-10T04:32:16.536Z,18.25
2016-05-10T04:33:16.632Z,18.36
2016-05-10T04:34:16.618Z,18.36
2016-05-10T04:35:16.560Z,18.34
2016-05-10T04:36:16.593Z,18.43
2016-05-10T04:37:16.518Z,18.43
2016-05-10T04:38:16.505Z,18.4
2016-05-10T04:39:16.523Z,18.4
2016-05-10T04:40:16.526Z,18.39
2016-05-10T04:41:16.465Z,18.47
2016-05-10T04:42:16.437Z,18.49
2016-05-10T04:43:16.393Z,18.49
2016-05-10T04:44:16.209Z,18.5
2016-05-10T04:45:16.352Z,18.49
2016-05-10T04:46:16.354Z,18.49
2016-05-10T04:47:16.200Z,18.55
2016-05-10T04:48:30.097Z,18.52
2016-05-10T04:49:16.331Z,18.55
2016-05-10T04:50:16.287Z,18.49
2016-05-10T04:51:16.228Z,18.57
2016-05-10T04:52:16.245Z,18.59
2016-05-10T04:53:16.216Z,18.5
2016-05-10T04:54:16.016Z,18.61
2016-05-10T04:55:16.175Z,18.58
2016-05-10T04:56:16.131Z,18.64
2016-05-10T04:57:16.133Z,18.55
2016-05-10T04:58:16.153Z,18.57
2016-05-10T04:59:16.171Z,18.54
2016-05-10T05:00:16.033Z,18.57
2016-05-10T05:01:15.927Z,18.58
2016-05-10T05:02:16.038Z,18.68
2016-05-10T05:03:16.025Z,18.68
2016-05-10T05:04:15.918Z,18.67
2016-05-10T05:05:16.124Z,18.72
2016-05-10T05:06:16.330Z,18.65
2016-05-10T05:07:15.926Z,18.68
2016-05-10T05:08:15.913Z,18.73
2016-05-10T05:09:15.916Z,18.76
2016-05-10T05:10:15.903Z,18.74
2016-05-10T05:11:15.860Z,18.74
2016-05-10T05:12:15.878Z,18.72
2016-05-10T05:13:15.676Z,18.74
2016-05-10T05:14:15.759Z,18.76
2016-05-10T05:15:15.745Z,18.8
2016-05-10T05:16:15.731Z,18.73
2016-05-10T05:17:15.735Z,18.77
2016-05-10T05:18:15.534Z,18.82
2016-05-10T05:19:15.490Z,18.79
2016-05-10T05:20:15.649Z,18.86
2016-05-10T05:21:15.652Z,18.9
2016-05-10T05:22:15.717Z,18.86
2016-05-10T05:23:15.703Z,18.92
2016-05-10T05:24:15.925Z,18.94
2016-05-10T05:25:16.334Z,18.91
2016-05-10T05:26:15.728Z,18.9
2016-05-10T05:27:15.543Z,18.91
2016-05-10T05:28:16.249Z,18.91
2016-05-10T05:29:16.548Z,18.91
2016-05-10T05:30:15.582Z,18.92
2016-05-10T05:31:15.663Z,18.91
2016-05-10T05:32:15.431Z,19.06
2016-05-10T05:33:29.672Z,18.95
2016-05-10T05:34:15.375Z,19.01
2016-05-10T05:35:15.924Z,19.02
2016-05-10T05:36:15.520Z,19.08
2016-05-10T05:37:15.320Z,19.08
2016-05-10T05:38:15.276Z,19.06
2016-05-10T05:39:15.278Z,19.13
2016-05-10T05:40:15.281Z,19.17
2016-05-10T05:41:15.299Z,19.15
2016-05-10T05:42:15.224Z,19.15
2016-05-10T05:43:15.242Z,19.17
2016-05-10T05:44:15.370Z,19.14
2016-05-10T05:45:15.248Z,19.18
2016-05-10T05:46:15.328Z,19.11
2016-05-10T05:47:14.987Z,19.18
2016-05-10T05:48:15.084Z,19.15
2016-05-10T05:49:15.148Z,19.28
2016-05-10T05:50:15.168Z,19.28
2016-05-10T05:51:15.076Z,19.23
2016-05-10T05:52:14.906Z,19.32
2016-05-10T05:53:14.878Z,19.23
2016-05-10T05:54:15.272Z,19.18
2016-05-10T05:55:14.961Z,19.25
2016-05-10T05:56:15.183Z,19.32
2016-05-10T05:57:15.061Z,19.25
2016-05-10T05:58:14.719Z,19.29
2016-05-10T05:59:15.066Z,19.33
2016-05-10T06:00:15.163Z,19.31
2016-05-10T06:01:14.963Z,19.33
2016-05-10T06:02:14.980Z,19.39
2016-05-10T06:03:14.811Z,19.39
2016-05-10T06:04:14.924Z,19.46
2016-05-10T06:05:15.271Z,19.46
2016-05-10T06:06:15.038Z,19.51
2016-05-10T06:07:14.822Z,19.4
2016-05-10T06:08:14.685Z,19.54
2016-05-10T06:09:15.344Z,19.54
2016-05-10T06:10:15.501Z,19.54
2016-05-10T06:11:14.645Z,19.51
2016-05-10T06:12:14.632Z,19.54
2016-05-10T06:13:14.588Z,19.57
2016-05-10T06:14:14.638Z,19.61
2016-05-10T06:15:14.563Z,19.63
2016-05-10T06:16:14.628Z,19.57
2016-05-10T06:17:14.520Z,19.61
2016-05-10T06:18:15.258Z,19.6
2016-05-10T06:19:14.604Z,19.6
2016-05-10T06:20:15.139Z,19.66
2016-05-10T06:21:14.970Z,19.72
2016-05-10T06:22:14.442Z,19.75
2016-05-10T06:23:14.850Z,19.72
2016-05-10T06:24:14.431Z,19.73
2016-05-10T06:25:14.933Z,19.78
2016-05-10T06:26:14.373Z,19.73
2016-05-10T06:27:14.438Z,19.87
2016-05-10T06:28:14.958Z,19.88
2016-05-10T06:29:15.069Z,19.87
2016-05-10T06:30:14.666Z,19.88
2016-05-10T06:31:14.293Z,19.9
2016-05-10T06:32:14.281Z,19.93
2016-05-10T06:33:14.423Z,19.94
2016-05-10T06:34:14.551Z,20.05
2016-05-10T06:35:14.210Z,20.02
2016-05-10T06:36:14.510Z,20.03
2016-05-10T06:37:14.231Z,20.12
2016-05-10T06:38:14.203Z,20.15
2016-05-10T06:39:14.143Z,20.15
2016-05-10T06:40:14.895Z,20.2
2016-05-10T06:41:14.148Z,20.18
2016-05-10T06:42:14.088Z,20.2
2016-05-10T06:43:14.029Z,20.24
2016-05-10T06:44:14.422Z,20.31
2016-05-10T06:45:14.424Z,20.27
2016-05-10T06:46:13.959Z,20.3
2016-05-10T06:47:14.509Z,20.27
2016-05-10T06:48:13.979Z,20.34
2016-05-10T06:49:14.014Z,20.38
2016-05-10T06:50:13.985Z,20.49
2016-05-10T06:51:13.847Z,20.49
2016-05-10T06:52:14.006Z,20.42
2016-05-10T06:53:13.837Z,20.56
2016-05-10T06:54:13.668Z,20.54
2016-05-10T06:55:13.795Z,20.56
2016-05-10T06:56:13.891Z,20.65
2016-05-10T06:57:14.191Z,20.68
2016-05-10T06:58:13.616Z,20.71
2016-05-10T06:59:14.056Z,20.77
2016-05-10T07:00:13.793Z,20.72
2016-05-10T07:01:13.999Z,20.9
2016-05-10T07:02:13.657Z,20.84
2016-05-10T07:03:13.755Z,20.91
2016-05-10T07:04:13.897Z,20.93
2016-05-10T07:05:13.588Z,20.93
2016-05-10T07:06:13.559Z,20.98
2016-05-10T07:07:14.202Z,20.98
2016-05-10T07:08:13.549Z,21.05
2016-05-10T07:09:13.645Z,21.02
2016-05-10T07:10:13.477Z,21.13
2016-05-10T07:11:15.401Z,21.11
2016-05-10T07:12:14.387Z,21.06
2016-05-10T07:13:13.296Z,21.09
2016-05-10T07:14:13.284Z,21.08
2016-05-10T07:15:13.865Z,21.09
2016-05-10T07:16:13.383Z,21.17
2016-05-10T07:17:13.354Z,21.14
2016-05-10T07:18:13.623Z,21.19
2016-05-10T07:19:14.250Z,21.13
2016-05-10T07:20:13.332Z,21.13
2016-05-10T07:21:13.381Z,21.17
2016-05-10T07:22:13.336Z,21.19
2016-05-10T07:23:13.401Z,21.29
2016-05-10T07:24:13.467Z,21.32
2016-05-10T07:25:13.220Z,21.27
2016-05-10T07:26:13.176Z,21.35
2016-05-10T07:27:13.319Z,21.32
2016-05-10T07:28:13.400Z,21.29
2016-05-10T07:29:13.683Z,21.39
2016-05-10T07:30:13.967Z,21.44
2016-05-10T07:31:13.141Z,21.46
2016-05-10T07:32:12.925Z,21.44
2016-05-10T07:33:14.085Z,21.5
2016-05-10T07:34:13.088Z,21.53
2016-05-10T07:35:13.044Z,21.56
2016-05-10T07:36:13.233Z,21.53
2016-05-10T07:37:13.314Z,21.61
2016-05-10T07:38:13.363Z,21.64
2016-05-10T07:39:12.976Z,21.6
2016-05-10T07:40:12.947Z,21.66
2016-05-10T07:41:12.949Z,21.71
2016-05-10T07:42:13.156Z,21.78
2016-05-10T07:43:12.877Z,21.71
2016-05-10T07:44:13.412Z,21.75
2016-05-10T07:45:12.727Z,21.76
2016-05-10T07:46:13.088Z,21.85
2016-05-10T07:47:12.857Z,21.82
2016-05-10T07:48:12.875Z,21.94
2016-05-10T07:49:12.768Z,21.88
2016-05-10T07:50:13.146Z,21.88
2016-05-10T07:51:12.602Z,21.94
2016-05-10T07:52:12.714Z,21.88
2016-05-10T07:53:12.686Z,21.95
2016-05-10T07:54:12.720Z,22.01
2016-05-10T07:55:12.817Z,22.01
2016-05-10T07:56:13.022Z,22.06
2016-05-10T07:57:12.478Z,22.01
2016-05-10T07:58:12.902Z,22.12
2016-05-10T07:59:13.827Z,22.06
2016-05-10T08:00:12.689Z,22.1
2016-05-10T08:01:12.519Z,22.17
2016-05-10T08:02:12.663Z,22.17
2016-05-10T08:03:12.634Z,22.22
2016-05-10T08:04:12.496Z,22.27
2016-05-10T08:05:12.468Z,22.2
2016-05-10T08:06:12.721Z,22.34
2016-05-10T08:07:13.036Z,22.32
2016-05-10T08:08:12.913Z,22.34
2016-05-10T08:09:12.416Z,22.41
2016-05-10T08:10:12.544Z,22.39
2016-05-10T08:11:12.624Z,22.35
2016-05-10T08:12:12.315Z,22.49
2016-05-10T08:13:12.599Z,22.52
2016-05-10T08:14:13.507Z,22.49
2016-05-10T08:15:12.385Z,22.43
2016-05-10T08:16:12.357Z,22.47
2016-05-10T08:17:12.312Z,22.54
2016-05-10T08:18:12.237Z,22.57
2016-05-10T08:19:12.193Z,22.57
2016-05-10T08:20:12.634Z,22.62
2016-05-10T08:21:12.557Z,22.56
2016-05-10T08:22:12.185Z,22.64
2016-05-10T08:23:12.282Z,22.72
2016-05-10T08:24:12.113Z,22.74
2016-05-10T08:25:12.303Z,22.59
2016-05-10T08:26:12.367Z,22.72
2016-05-10T08:27:12.308Z,22.71
2016-05-10T08:28:12.311Z,22.69
2016-05-10T08:29:12.142Z,22.72
2016-05-10T08:30:14.519Z,22.74
2016-05-10T08:31:12.038Z,22.72
2016-05-10T08:32:39.496Z,22.8
2016-05-10T08:33:12.324Z,22.83
2016-05-10T08:34:11.812Z,22.83
2016-05-10T08:35:11.939Z,22.86
2016-05-10T08:36:12.019Z,22.93
2016-05-10T08:37:11.835Z,22.92
2016-05-10T08:38:11.869Z,22.96
2016-05-10T08:39:11.887Z,22.9
2016-05-10T08:40:11.890Z,23.01
2016-05-10T08:41:11.815Z,22.99
2016-05-10T08:42:12.113Z,23.05
2016-05-10T08:43:11.866Z,23.14
2016-05-10T08:44:14.026Z,23.11
2016-05-10T08:45:11.747Z,23.15
2016-05-10T08:46:11.734Z,23.14
2016-05-10T08:47:11.799Z,23.19
2016-05-10T08:48:11.865Z,23.24
2016-05-10T08:49:11.665Z,23.26
2016-05-10T08:50:11.714Z,23.26
2016-05-10T08:51:11.748Z,23.31
2016-05-10T08:52:11.485Z,23.32
2016-05-10T08:53:11.707Z,23.42
2016-05-10T08:54:12.131Z,23.38
2016-05-10T08:55:11.665Z,23.45
2016-05-10T08:56:11.559Z,23.5
2016-05-10T08:57:11.826Z,23.53
2016-05-10T08:58:11.501Z,23.57
2016-05-10T08:59:12.003Z,23.53
2016-05-10T09:00:11.506Z,23.67
2016-05-10T09:01:12.025Z,23.64
2016-05-10T09:02:11.902Z,23.71
2016-05-10T09:03:11.405Z,23.68
2016-05-10T09:04:11.391Z,23.77
2016-05-10T09:05:11.222Z,23.72
2016-05-10T09:06:12.617Z,23.8
2016-05-10T09:07:11.385Z,23.86
2016-05-10T09:08:11.309Z,23.8
2016-05-10T09:09:11.172Z,23.87
2016-05-10T09:10:11.393Z,23.89
2016-05-10T09:11:19.927Z,23.94
2016-05-10T09:12:12.055Z,23.82
2016-05-10T09:13:11.697Z,23.94
2016-05-10T09:14:11.263Z,24.05
2016-05-10T09:15:11.391Z,23.92
2016-05-10T09:16:11.377Z,23.98
2016-05-10T09:17:11.208Z,24.05
2016-05-10T09:18:11.211Z,24.04
2016-05-10T09:19:11.297Z,24.05
2016-05-10T09:20:11.280Z,24.13
2016-05-10T09:21:12.574Z,24.13
2016-05-10T09:22:12.212Z,24.14
2016-05-10T09:23:11.693Z,24.19
2016-05-10T09:24:12.385Z,24.32
2016-05-10T09:25:11.669Z,24.24
2016-05-10T09:26:11.374Z,24.22
2016-05-10T09:27:11.611Z,24.29
2016-05-10T09:28:11.550Z,24.35
2016-05-10T09:29:11.277Z,24.35
2016-05-10T09:30:11.083Z,24.39
2016-05-10T09:31:11.856Z,24.42
2016-05-10T09:32:11.224Z,24.47
2016-05-10T09:33:11.216Z,24.45
2016-05-10T09:34:12.019Z,24.52
2016-05-10T09:35:11.710Z,24.5
2016-05-10T09:36:11.245Z,24.47
2016-05-10T09:37:11.203Z,24.57
2016-05-10T09:38:11.177Z,24.57
2016-05-10T09:39:11.336Z,24.53
2016-05-10T09:40:11.247Z,24.56
2016-05-10T09:41:11.109Z,24.54
2016-05-10T09:42:11.426Z,24.54
2016-05-10T09:43:11.742Z,24.6
2016-05-10T09:44:11.697Z,24.71
2016-05-10T09:45:11.498Z,24.75
2016-05-10T09:46:11.141Z,24.68
2016-05-10T09:47:11.051Z,24.69
2016-05-10T09:48:10.991Z,24.83
2016-05-10T09:49:11.181Z,24.85
2016-05-10T09:50:11.668Z,24.82
2016-05-10T09:51:11.405Z,24.87
2016-05-10T09:52:11.064Z,24.88
2016-05-10T09:53:10.958Z,24.92
2016-05-10T09:54:11.226Z,24.91
2016-05-10T09:55:10.900Z,24.98
2016-05-10T09:56:10.825Z,24.95
2016-05-10T09:57:11.015Z,25.09
2016-05-10T09:58:11.283Z,25.07
2016-05-10T09:59:11.178Z,25.07
2016-05-10T10:00:11.852Z,25.1
2016-05-10T10:01:10.761Z,25.07
2016-05-10T10:02:10.810Z,25.15
2016-05-10T10:03:10.735Z,25.12
2016-05-10T10:04:11.988Z,25.24
2016-05-10T10:05:10.755Z,25.27
2016-05-10T10:06:10.649Z,25.35
2016-05-10T10:07:10.449Z,25.16
2016-05-10T10:08:10.685Z,25.28
2016-05-10T10:09:10.611Z,25.28
2016-05-10T10:10:10.597Z,25.35
2016-05-10T10:11:10.725Z,25.32
2016-05-10T10:12:10.478Z,25.34
2016-05-10T10:13:10.746Z,25.49
2016-05-10T10:14:10.530Z,25.38
2016-05-10T10:15:10.423Z,25.47
2016-05-10T10:16:10.535Z,25.49
2016-05-10T10:17:10.351Z,25.42
2016-05-10T10:18:10.525Z,25.53
2016-05-10T10:19:10.746Z,25.53
2016-05-10T10:20:10.701Z,25.57
2016-05-10T10:21:10.518Z,25.61
2016-05-10T10:22:10.379Z,25.57
2016-05-10T10:23:10.382Z,25.62
2016-05-10T10:24:10.431Z,25.68
2016-05-10T10:25:10.185Z,25.64
2016-05-10T10:26:10.187Z,25.62
2016-05-10T10:27:10.425Z,25.72
2016-05-10T10:28:10.287Z,25.72
2016-05-10T10:29:10.883Z,25.74
2016-05-10T10:30:10.292Z,25.72
2016-05-10T10:31:10.466Z,25.74
2016-05-10T10:32:10.234Z,25.75
2016-05-10T10:33:10.534Z,25.71
2016-05-10T10:34:10.255Z,25.71
2016-05-10T10:35:10.321Z,25.71
2016-05-10T10:36:10.230Z,25.74
2016-05-10T10:37:09.997Z,25.71
2016-05-10T10:38:10.157Z,25.68
2016-05-10T10:39:10.113Z,25.71
2016-05-10T10:40:10.271Z,25.74
2016-05-10T10:41:10.494Z,25.75
2016-05-10T10:42:10.590Z,25.74
2016-05-10T10:43:10.046Z,25.8
2016-05-10T10:44:10.080Z,25.75
2016-05-10T10:45:10.613Z,25.84
2016-05-10T10:46:10.147Z,25.87
2016-05-10T10:47:10.229Z,25.87
2016-05-10T10:48:09.887Z,25.87
2016-05-10T10:49:10.592Z,25.86
2016-05-10T10:50:09.940Z,25.84
2016-05-10T10:51:09.943Z,25.87
2016-05-10T10:52:09.976Z,25.75
2016-05-10T10:53:09.870Z,25.82
2016-05-10T10:54:09.903Z,25.77
2016-05-10T10:55:10.062Z,25.82
2016-05-10T10:56:09.892Z,25.89
2016-05-10T10:57:09.833Z,25.9
2016-05-10T10:58:09.773Z,25.87
2016-05-10T10:59:09.932Z,25.89
2016-05-10T11:00:10.545Z,25.94
2016-05-10T11:01:09.734Z,25.9
2016-05-10T11:02:10.644Z,25.91
2016-05-10T11:03:09.756Z,25.93
2016-05-10T11:04:09.743Z,26.01
2016-05-10T11:05:09.527Z,26.04
2016-05-10T11:06:09.686Z,26.02
2016-05-10T11:07:10.172Z,26.04
2016-05-10T11:08:10.160Z,26.01
2016-05-10T11:09:10.240Z,26.02
2016-05-10T11:10:10.040Z,26.09
2016-05-10T11:11:09.730Z,26.02
2016-05-10T11:12:10.342Z,26.11
2016-05-10T11:13:09.610Z,26.22
2016-05-10T11:14:09.644Z,26.31
2016-05-10T11:15:09.757Z,26.18
2016-05-10T11:16:09.743Z,26.22
2016-05-10T11:17:09.559Z,26.21
2016-05-10T11:18:09.515Z,26.24
2016-05-10T11:19:09.533Z,26.21
2016-05-10T11:20:09.863Z,26.25
2016-05-10T11:21:09.429Z,26.35
2016-05-10T11:22:09.619Z,26.27
2016-05-10T11:23:09.466Z,26.32
2016-05-10T11:24:09.406Z,26.39
2016-05-10T11:25:09.674Z,26.36
2016-05-10T11:26:09.349Z,26.44
2016-05-10T11:27:09.429Z,26.42
2016-05-10T11:28:09.432Z,26.5
2016-05-10T11:29:09.701Z,26.52
2016-05-10T11:30:09.187Z,26.58
2016-05-10T11:31:09.253Z,26.61
2016-05-10T11:32:09.599Z,26.64
2016-05-10T11:33:09.320Z,26.61
2016-05-10T11:34:09.229Z,26.64
2016-05-10T11:35:09.325Z,26.61
2016-05-10T11:36:09.422Z,26.67
2016-05-10T11:37:08.831Z,26.64
2016-05-10T11:38:09.302Z,26.68
2016-05-10T11:39:08.977Z,26.73
2016-05-10T11:40:09.339Z,26.72
2016-05-10T11:41:09.295Z,26.83
2016-05-10T11:42:09.095Z,26.86
2016-05-10T11:43:09.129Z,26.8
2016-05-10T11:44:10.287Z,26.83
2016-05-10T11:45:09.431Z,26.83
2016-05-10T11:46:09.309Z,26.81
2016-05-10T11:47:09.077Z,26.86
2016-05-10T11:48:10.205Z,26.87
2016-05-10T11:49:08.910Z,26.94
2016-05-10T11:50:08.991Z,26.91
2016-05-10T11:51:09.010Z,27.04
2016-05-10T11:52:09.074Z,27.06
2016-05-10T11:53:09.046Z,27.09
2016-05-10T11:54:08.799Z,27.19
2016-05-10T11:55:08.911Z,27.23
2016-05-10T11:56:08.867Z,27.16
2016-05-10T11:57:08.932Z,27.2
2016-05-10T11:58:08.887Z,27.26
2016-05-10T11:59:08.875Z,27.32
2016-05-10T12:00:09.143Z,27.28
2016-05-10T12:01:08.989Z,27.26
2016-05-10T12:02:08.883Z,27.24
2016-05-10T12:03:09.291Z,27.36
2016-05-10T12:04:08.872Z,27.53
2016-05-10T12:05:08.766Z,27.73
2016-05-10T12:06:09.753Z,27.89
2016-05-10T12:07:09.100Z,27.94
2016-05-10T12:08:09.461Z,28.07
2016-05-10T12:09:09.214Z,28.07
2016-05-10T12:10:08.686Z,28.06
2016-05-10T12:11:08.673Z,28.06
2016-05-10T12:12:09.300Z,27.99
2016-05-10T12:13:08.663Z,27.88
2016-05-10T12:14:08.853Z,28.01
2016-05-10T12:15:08.855Z,27.99
2016-05-10T12:16:09.171Z,27.85
2016-05-10T12:17:08.814Z,27.88
2016-05-10T12:18:08.566Z,27.84
2016-05-10T12:19:08.851Z,27.85
2016-05-10T12:20:08.619Z,27.86
2016-05-10T12:21:22.231Z,27.71
2016-05-10T12:22:08.609Z,27.8
2016-05-10T12:23:08.549Z,27.74
2016-05-10T12:24:08.426Z,27.82
2016-05-10T12:25:08.555Z,27.76
2016-05-10T12:26:08.510Z,27.85
2016-05-10T12:27:08.293Z,27.94
2016-05-10T12:28:08.422Z,27.95
2016-05-10T12:29:08.424Z,28.06
2016-05-10T12:30:08.334Z,27.95
2016-05-10T12:31:08.384Z,28.07
2016-05-10T12:32:08.353Z,28.16
2016-05-10T12:33:08.435Z,28.03
2016-05-10T12:34:08.345Z,28.01
2016-05-10T12:35:08.284Z,27.95
2016-05-10T12:36:08.256Z,27.89
2016-05-10T12:37:08.368Z,27.92
2016-05-10T12:38:08.448Z,27.7
2016-05-10T12:39:08.264Z,27.67
2016-05-10T12:40:08.078Z,27.59
2016-05-10T12:41:08.410Z,27.59
2016-05-10T12:42:08.381Z,27.54
2016-05-10T12:43:08.009Z,27.61
2016-05-10T12:44:08.011Z,27.54
2016-05-10T12:45:08.171Z,27.53
2016-05-10T12:46:08.360Z,27.59
2016-05-10T12:47:08.723Z,27.54
2016-05-10T12:48:08.100Z,27.5
2016-05-10T12:49:08.135Z,27.42
2016-05-10T12:50:08.074Z,27.38
2016-05-10T12:51:08.030Z,27.38
2016-05-10T12:52:08.080Z,27.29
2016-05-10T12:53:08.021Z,27.29
2016-05-10T12:54:08.023Z,27.24
2016-05-10T12:55:07.697Z,27.24
2016-05-10T12:56:08.029Z,27.21
2016-05-10T12:57:07.968Z,27.24
2016-05-10T12:58:07.971Z,27.23
2016-05-10T12:59:07.973Z,27.24
2016-05-10T13:00:07.773Z,27.21
2016-05-10T13:01:08.198Z,27.24
2016-05-10T13:02:07.920Z,27.2